MSC Lisbon — A8LL9 — position and weather

sailwx.info

Track history (hours):
 
Tides and Currents Weather Stations Pressure Air Temp Water Temp Dewpoint Dewpoint Depression Visibility Wind Speed Wind Dir Waves Ship Positions

MSC Lisbon

Last reported at 2015-Mar-27 09:34 UTC. Time now 2015-Mar-30 05:53 UTC.
Position N 26°26' W 078°45'.

Length 336.7 m; beam 45.6 m; draft 15.3 m.

Type: Ship (hazmat cat A). MMSI: 636091276.

Date/timePositionNaut miles runAvg speedWind from/ knotsBaromVisibWave heightAir tempDewpointWater temp
2015-Mar-27 09:34N 26°26' W 078°45'3 2.4
2015-Mar-27 08:08N 26°27' W 078°49'4 1.8
2015-Mar-27 06:04N 26°27' W 078°53'1 2.0
2015-Mar-27 05:33N 26°27' W 078°54'2 2.1
2015-Mar-27 04:33N 26°27' W 078°56'2 2.2
2015-Mar-27 03:33N 26°27' W 078°59'2 2.2
2015-Mar-27 02:33N 26°27' W 079°01'2 2.5
2015-Mar-27 01:33N 26°26' W 079°04'3 1.5
2015-Mar-26 23:28N 26°23' W 079°04'1 0.1
2015-Mar-26 03:08N 26°23' W 079°02'1 1.2
2015-Mar-26 02:33N 26°23' W 079°01'1 0.8
2015-Mar-26 01:33N 26°23' W 079°00'1 0.6
2015-Mar-26 00:34N 26°24' W 079°00'1 0.6
2015-Mar-25 23:33N 26°24' W 078°60'1 0.4
2015-Mar-25 21:33N 26°25' W 078°60'1 0.7
2015-Mar-25 20:33N 26°26' W 079°00'1 0.6
2015-Mar-25 19:33N 26°26' W 079°00'1 0.7
2015-Mar-25 18:31N 26°27' W 079°01'1 0.6
2015-Mar-25 16:12N 26°28' W 079°02'0 0.5
2015-Mar-25 15:31N 26°28' W 079°02'33711.1
2015-Mar-24 09:04N 31°55' W 080°36'4 8.9
2015-Mar-24 08:33N 31°57' W 080°41'1212.2
2015-Mar-24 07:33N 32°02' W 080°54'9 9.4
2015-Mar-24 06:33N 32°05' W 081°05'5 4.2
2015-Mar-24 05:24N 32°08' W 081°09'0 0.0
2015-Mar-24 04:33N 32°08' W 081°09'0 0.0
2015-Mar-24 03:33N 32°08' W 081°09'0 0.0
2015-Mar-24 02:33N 32°08' W 081°09'0 0.0
2015-Mar-24 01:33N 32°08' W 081°09'0 0.0
2015-Mar-24 00:33N 32°08' W 081°09'0 0.0
2015-Mar-23 23:33N 32°08' W 081°09'0 0.0
2015-Mar-23 22:33N 32°08' W 081°09'0 0.0
2015-Mar-23 21:33N 32°08' W 081°09'0 0.0
2015-Mar-23 20:32N 32°08' W 081°09'0 0.0
2015-Mar-23 19:32N 32°08' W 081°09'0 0.0
2015-Mar-23 18:29N 32°08' W 081°09'0 0.0
2015-Mar-23 17:32N 32°08' W 081°09'0 0.0
2015-Mar-23 16:32N 32°08' W 081°09'0 0.0
2015-Mar-23 15:32N 32°08' W 081°09'0 0.0
2015-Mar-23 14:32N 32°08' W 081°09'1 1.4
2015-Mar-23 13:33N 32°07' W 081°08'6 5.7
2015-Mar-23 12:33N 32°05' W 081°01'1111.1
2015-Mar-23 11:33N 32°02' W 080°49'1010.0
2015-Mar-23 10:33N 31°56' W 080°39'8 8.5
2015-Mar-23 09:33N 31°52' W 080°30'275 6.2
2015-Mar-21 13:29N 34°30' W 076°01'  
2015-Mar-18 13:30N 39°30' W 073°57'1313.4
2015-Mar-18 12:33N 39°42' W 073°53'1313.5
2015-Mar-18 11:33N 39°55' W 073°51'3310.6
2015-Mar-18 08:29N 40°28' W 073°52'1111.9
2015-Mar-18 07:33N 40°35' W 074°02'6 6.3
2015-Mar-18 06:33N 40°39' W 074°09'2 1.8
2015-Mar-18 05:29N 40°41' W 074°09'0 0.0
2015-Mar-18 04:29N 40°41' W 074°09'0 0.0
2015-Mar-18 03:29N 40°41' W 074°09'0 0.0
2015-Mar-18 02:17N 40°41' W 074°09'0 0.0
2015-Mar-18 01:29N 40°41' W 074°09'0 0.0
2015-Mar-18 00:17N 40°41' W 074°09'0 0.0
2015-Mar-17 23:23N 40°41' W 074°09'0 0.0
2015-Mar-17 22:23N 40°41' W 074°09'0 0.0
2015-Mar-17 21:17N 40°41' W 074°09'0 0.0
2015-Mar-17 20:23N 40°41' W 074°09'0 0.0
2015-Mar-17 19:29N 40°41' W 074°09'0 0.0
2015-Mar-17 18:29N 40°41' W 074°09'0 0.0
2015-Mar-17 17:29N 40°41' W 074°09'0 0.0
2015-Mar-17 16:11N 40°41' W 074°09'0 0.0
2015-Mar-17 15:29N 40°41' W 074°09'0 0.0
2015-Mar-17 14:29N 40°41' W 074°09'0 0.0
2015-Mar-17 13:29N 40°41' W 074°09'0 0.0
2015-Mar-17 12:23N 40°41' W 074°09'0 0.0
2015-Mar-17 11:29N 40°41' W 074°09'0 0.0
2015-Mar-17 10:29N 40°41' W 074°09'  
Track history (hours):
 
Tides and Currents Weather Stations Pressure Air Temp Water Temp Dewpoint Dewpoint Depression Visibility Wind Speed Wind Dir Waves Ship Positions

MSC Lisbon

Last reported at 2015-Mar-27 09:34 UTC. Time now 2015-Mar-30 05:53 UTC.
Position N 26°26' W 078°45'.

Length 336.7 m; beam 45.6 m; draft 15.3 m.

Type: Ship (hazmat cat A). MMSI: 636091276.

Date/timePositionNaut miles runAvg speedWind from/ knotsBaromVisibWave heightAir tempDewpointWater temp
2015-Mar-27 09:34N 26°26' W 078°45'3 2.4
2015-Mar-27 08:08N 26°27' W 078°49'4 1.8
2015-Mar-27 06:04N 26°27' W 078°53'1 2.0
2015-Mar-27 05:33N 26°27' W 078°54'2 2.1
2015-Mar-27 04:33N 26°27' W 078°56'2 2.2
2015-Mar-27 03:33N 26°27' W 078°59'2 2.2
2015-Mar-27 02:33N 26°27' W 079°01'2 2.5
2015-Mar-27 01:33N 26°26' W 079°04'3 1.5
2015-Mar-26 23:28N 26°23' W 079°04'1 0.1
2015-Mar-26 03:08N 26°23' W 079°02'1 1.2
2015-Mar-26 02:33N 26°23' W 079°01'1 0.8
2015-Mar-26 01:33N 26°23' W 079°00'1 0.6
2015-Mar-26 00:34N 26°24' W 079°00'1 0.6
2015-Mar-25 23:33N 26°24' W 078°60'1 0.4
2015-Mar-25 21:33N 26°25' W 078°60'1 0.7
2015-Mar-25 20:33N 26°26' W 079°00'1 0.6
2015-Mar-25 19:33N 26°26' W 079°00'1 0.7
2015-Mar-25 18:31N 26°27' W 079°01'1 0.6
2015-Mar-25 16:12N 26°28' W 079°02'0 0.5
2015-Mar-25 15:31N 26°28' W 079°02'33711.1
2015-Mar-24 09:04N 31°55' W 080°36'4 8.9
2015-Mar-24 08:33N 31°57' W 080°41'1212.2
2015-Mar-24 07:33N 32°02' W 080°54'9 9.4
2015-Mar-24 06:33N 32°05' W 081°05'5 4.2
2015-Mar-24 05:24N 32°08' W 081°09'0 0.0
2015-Mar-24 04:33N 32°08' W 081°09'0 0.0
2015-Mar-24 03:33N 32°08' W 081°09'0 0.0
2015-Mar-24 02:33N 32°08' W 081°09'0 0.0
2015-Mar-24 01:33N 32°08' W 081°09'0 0.0
2015-Mar-24 00:33N 32°08' W 081°09'0 0.0
2015-Mar-23 23:33N 32°08' W 081°09'0 0.0
2015-Mar-23 22:33N 32°08' W 081°09'0 0.0
2015-Mar-23 21:33N 32°08' W 081°09'0 0.0
2015-Mar-23 20:32N 32°08' W 081°09'0 0.0
2015-Mar-23 19:32N 32°08' W 081°09'0 0.0
2015-Mar-23 18:29N 32°08' W 081°09'0 0.0
2015-Mar-23 17:32N 32°08' W 081°09'0 0.0
2015-Mar-23 16:32N 32°08' W 081°09'0 0.0
2015-Mar-23 15:32N 32°08' W 081°09'0 0.0
2015-Mar-23 14:32N 32°08' W 081°09'1 1.4
2015-Mar-23 13:33N 32°07' W 081°08'6 5.7
2015-Mar-23 12:33N 32°05' W 081°01'1111.1
2015-Mar-23 11:33N 32°02' W 080°49'1010.0
2015-Mar-23 10:33N 31°56' W 080°39'8 8.5
2015-Mar-23 09:33N 31°52' W 080°30'275 6.2
2015-Mar-21 13:29N 34°30' W 076°01'  
2015-Mar-18 13:30N 39°30' W 073°57'1313.4
2015-Mar-18 12:33N 39°42' W 073°53'1313.5
2015-Mar-18 11:33N 39°55' W 073°51'3310.6
2015-Mar-18 08:29N 40°28' W 073°52'1111.9
2015-Mar-18 07:33N 40°35' W 074°02'6 6.3
2015-Mar-18 06:33N 40°39' W 074°09'2 1.8
2015-Mar-18 05:29N 40°41' W 074°09'0 0.0
2015-Mar-18 04:29N 40°41' W 074°09'0 0.0
2015-Mar-18 03:29N 40°41' W 074°09'0 0.0
2015-Mar-18 02:17N 40°41' W 074°09'0 0.0
2015-Mar-18 01:29N 40°41' W 074°09'0 0.0
2015-Mar-18 00:17N 40°41' W 074°09'0 0.0
2015-Mar-17 23:23N 40°41' W 074°09'0 0.0
2015-Mar-17 22:23N 40°41' W 074°09'0 0.0
2015-Mar-17 21:17N 40°41' W 074°09'0 0.0
2015-Mar-17 20:23N 40°41' W 074°09'0 0.0
2015-Mar-17 19:29N 40°41' W 074°09'0 0.0
2015-Mar-17 18:29N 40°41' W 074°09'0 0.0
2015-Mar-17 17:29N 40°41' W 074°09'0 0.0
2015-Mar-17 16:11N 40°41' W 074°09'0 0.0
2015-Mar-17 15:29N 40°41' W 074°09'0 0.0
2015-Mar-17 14:29N 40°41' W 074°09'0 0.0
2015-Mar-17 13:29N 40°41' W 074°09'0 0.0
2015-Mar-17 12:23N 40°41' W 074°09'0 0.0
2015-Mar-17 11:29N 40°41' W 074°09'0 0.0
2015-Mar-17 10:29N 40°41' W 074°09'  

Dump ship's entire track history